sensor_id;sensor_type;location;lat;lon;timestamp;P1;durP1;ratioP1;P2;durP2;ratioP2
33690;SDS011;20026;50.058;18.428;2023-02-28T00:01:37;27.45;;;11.27;;
33690;SDS011;20026;50.058;18.428;2023-02-28T00:04:04;25.75;;;10.63;;
33690;SDS011;20026;50.058;18.428;2023-02-28T00:06:30;36.35;;;13.70;;
33690;SDS011;20026;50.058;18.428;2023-02-28T00:08:56;36.92;;;13.48;;
33690;SDS011;20026;50.058;18.428;2023-02-28T00:11:22;35.95;;;13.48;;
33690;SDS011;20026;50.058;18.428;2023-02-28T00:13:48;24.42;;;10.13;;
33690;SDS011;20026;50.058;18.428;2023-02-28T00:16:16;28.20;;;10.30;;
33690;SDS011;20026;50.058;18.428;2023-02-28T00:18:43;26.47;;;10.27;;
33690;SDS011;20026;50.058;18.428;2023-02-28T00:21:09;23.00;;;9.80;;
33690;SDS011;20026;50.058;18.428;2023-02-28T00:23:35;24.85;;;9.68;;
33690;SDS011;20026;50.058;18.428;2023-02-28T00:26:01;25.02;;;9.82;;
33690;SDS011;20026;50.058;18.428;2023-02-28T00:28:27;25.02;;;11.10;;
33690;SDS011;20026;50.058;18.428;2023-02-28T00:30:53;23.40;;;11.10;;
33690;SDS011;20026;50.058;18.428;2023-02-28T00:33:19;24.10;;;10.18;;
33690;SDS011;20026;50.058;18.428;2023-02-28T00:35:45;29.80;;;10.73;;
33690;SDS011;20026;50.058;18.428;2023-02-28T00:38:12;28.23;;;11.70;;
33690;SDS011;20026;50.058;18.428;2023-02-28T00:40:38;26.92;;;11.73;;
33690;SDS011;20026;50.058;18.428;2023-02-28T00:43:04;30.30;;;11.70;;
33690;SDS011;20026;50.058;18.428;2023-02-28T00:45:30;27.85;;;12.07;;
33690;SDS011;20026;50.058;18.428;2023-02-28T00:47:56;29.48;;;11.18;;
33690;SDS011;20026;50.058;18.428;2023-02-28T00:50:22;28.15;;;11.75;;
33690;SDS011;20026;50.058;18.428;2023-02-28T00:52:48;27.70;;;12.07;;
33690;SDS011;20026;50.058;18.428;2023-02-28T00:55:14;29.38;;;11.88;;
33690;SDS011;20026;50.058;18.428;2023-02-28T00:57:40;27.13;;;12.80;;
33690;SDS011;20026;50.058;18.428;2023-02-28T01:00:07;27.83;;;12.40;;
33690;SDS011;20026;50.058;18.428;2023-02-28T01:02:33;29.92;;;12.43;;
33690;SDS011;20026;50.058;18.428;2023-02-28T01:04:59;29.05;;;13.57;;
33690;SDS011;20026;50.058;18.428;2023-02-28T01:07:25;30.67;;;13.75;;
33690;SDS011;20026;50.058;18.428;2023-02-28T01:09:51;31.10;;;14.43;;
33690;SDS011;20026;50.058;18.428;2023-02-28T01:12:17;33.38;;;13.80;;
33690;SDS011;20026;50.058;18.428;2023-02-28T01:14:43;33.13;;;13.75;;
33690;SDS011;20026;50.058;18.428;2023-02-28T01:17:10;34.15;;;13.07;;
33690;SDS011;20026;50.058;18.428;2023-02-28T01:19:36;30.70;;;13.25;;
33690;SDS011;20026;50.058;18.428;2023-02-28T01:22:05;27.08;;;11.98;;
33690;SDS011;20026;50.058;18.428;2023-02-28T01:24:31;31.25;;;12.40;;
33690;SDS011;20026;50.058;18.428;2023-02-28T01:26:57;29.75;;;13.25;;
33690;SDS011;20026;50.058;18.428;2023-02-28T01:29:23;42.20;;;15.95;;
33690;SDS011;20026;50.058;18.428;2023-02-28T01:31:49;36.60;;;14.95;;
33690;SDS011;20026;50.058;18.428;2023-02-28T01:34:15;34.75;;;14.82;;
33690;SDS011;20026;50.058;18.428;2023-02-28T01:36:44;49.13;;;17.98;;
33690;SDS011;20026;50.058;18.428;2023-02-28T01:39:10;42.10;;;18.05;;
33690;SDS011;20026;50.058;18.428;2023-02-28T01:41:37;34.95;;;14.77;;
33690;SDS011;20026;50.058;18.428;2023-02-28T01:44:05;37.40;;;14.63;;
33690;SDS011;20026;50.058;18.428;2023-02-28T01:46:32;34.70;;;12.93;;
33690;SDS011;20026;50.058;18.428;2023-02-28T01:49:05;36.92;;;13.18;;
33690;SDS011;20026;50.058;18.428;2023-02-28T01:51:44;28.85;;;11.30;;
33690;SDS011;20026;50.058;18.428;2023-02-28T01:54:16;25.42;;;10.75;;
33690;SDS011;20026;50.058;18.428;2023-02-28T01:56:44;30.42;;;11.48;;
33690;SDS011;20026;50.058;18.428;2023-02-28T02:01:38;20.38;;;8.63;;
33690;SDS011;20026;50.058;18.428;2023-02-28T02:04:04;24.02;;;9.20;;
33690;SDS011;20026;50.058;18.428;2023-02-28T02:06:33;27.73;;;10.52;;
33690;SDS011;20026;50.058;18.428;2023-02-28T02:09:00;26.48;;;12.23;;
33690;SDS011;20026;50.058;18.428;2023-02-28T02:11:26;35.65;;;14.13;;
33690;SDS011;20026;50.058;18.428;2023-02-28T02:18:47;35.05;;;13.57;;
33690;SDS011;20026;50.058;18.428;2023-02-28T02:21:16;30.70;;;12.77;;
33690;SDS011;20026;50.058;18.428;2023-02-28T02:26:35;29.27;;;12.45;;
33690;SDS011;20026;50.058;18.428;2023-02-28T02:37:15;27.92;;;11.57;;
33690;SDS011;20026;50.058;18.428;2023-02-28T02:45:23;22.08;;;10.40;;
33690;SDS011;20026;50.058;18.428;2023-02-28T02:47:52;20.63;;;9.65;;
33690;SDS011;20026;50.058;18.428;2023-02-28T02:50:38;28.05;;;11.15;;
33690;SDS011;20026;50.058;18.428;2023-02-28T02:53:05;22.52;;;10.32;;
33690;SDS011;20026;50.058;18.428;2023-02-28T02:55:33;22.73;;;10.48;;
33690;SDS011;20026;50.058;18.428;2023-02-28T02:58:04;26.00;;;9.98;;
33690;SDS011;20026;50.058;18.428;2023-02-28T03:00:32;24.00;;;10.23;;
33690;SDS011;20026;50.058;18.428;2023-02-28T03:03:00;22.42;;;10.40;;
33690;SDS011;20026;50.058;18.428;2023-02-28T03:05:28;23.48;;;10.07;;
33690;SDS011;20026;50.058;18.428;2023-02-28T03:07:55;23.20;;;10.48;;
33690;SDS011;20026;50.058;18.428;2023-02-28T03:10:26;28.65;;;10.98;;
33690;SDS011;20026;50.058;18.428;2023-02-28T03:12:56;22.35;;;9.15;;
33690;SDS011;20026;50.058;18.428;2023-02-28T03:15:26;23.10;;;10.15;;
33690;SDS011;20026;50.058;18.428;2023-02-28T03:25:27;25.90;;;11.68;;
33690;SDS011;20026;50.058;18.428;2023-02-28T03:33:10;28.95;;;12.77;;
33690;SDS011;20026;50.058;18.428;2023-02-28T03:35:59;31.75;;;13.20;;
33690;SDS011;20026;50.058;18.428;2023-02-28T03:38:27;36.45;;;15.45;;
33690;SDS011;20026;50.058;18.428;2023-02-28T03:40:56;45.25;;;19.05;;
33690;SDS011;20026;50.058;18.428;2023-02-28T03:43:25;41.85;;;16.48;;
33690;SDS011;20026;50.058;18.428;2023-02-28T03:45:54;29.63;;;13.85;;
33690;SDS011;20026;50.058;18.428;2023-02-28T03:48:25;27.15;;;13.00;;
33690;SDS011;20026;50.058;18.428;2023-02-28T03:50:54;35.08;;;13.52;;
33690;SDS011;20026;50.058;18.428;2023-02-28T03:55:57;34.30;;;14.90;;
33690;SDS011;20026;50.058;18.428;2023-02-28T04:01:14;97.70;;;39.13;;
33690;SDS011;20026;50.058;18.428;2023-02-28T04:03:41;149.00;;;53.80;;
33690;SDS011;20026;50.058;18.428;2023-02-28T04:06:07;166.48;;;49.53;;
33690;SDS011;20026;50.058;18.428;2023-02-28T04:08:35;176.23;;;48.45;;
33690;SDS011;20026;50.058;18.428;2023-02-28T04:11:04;184.73;;;48.05;;
33690;SDS011;20026;50.058;18.428;2023-02-28T04:13:32;145.38;;;37.75;;
33690;SDS011;20026;50.058;18.428;2023-02-28T04:15:58;104.38;;;29.75;;
33690;SDS011;20026;50.058;18.428;2023-02-28T04:18:24;105.90;;;31.67;;
33690;SDS011;20026;50.058;18.428;2023-02-28T04:20:50;108.63;;;32.80;;
33690;SDS011;20026;50.058;18.428;2023-02-28T04:23:16;86.40;;;27.45;;
33690;SDS011;20026;50.058;18.428;2023-02-28T04:25:42;93.82;;;27.08;;
33690;SDS011;20026;50.058;18.428;2023-02-28T04:28:08;89.45;;;25.63;;
33690;SDS011;20026;50.058;18.428;2023-02-28T04:30:34;77.70;;;25.98;;
33690;SDS011;20026;50.058;18.428;2023-02-28T04:33:01;59.30;;;22.05;;
33690;SDS011;20026;50.058;18.428;2023-02-28T04:35:27;72.90;;;25.55;;
33690;SDS011;20026;50.058;18.428;2023-02-28T04:37:53;77.22;;;25.17;;
33690;SDS011;20026;50.058;18.428;2023-02-28T04:40:19;66.32;;;25.27;;
33690;SDS011;20026;50.058;18.428;2023-02-28T04:42:45;73.55;;;24.67;;
33690;SDS011;20026;50.058;18.428;2023-02-28T04:45:11;60.25;;;21.52;;
33690;SDS011;20026;50.058;18.428;2023-02-28T04:47:37;63.13;;;23.73;;
33690;SDS011;20026;50.058;18.428;2023-02-28T04:50:03;84.28;;;27.30;;
33690;SDS011;20026;50.058;18.428;2023-02-28T04:52:29;97.45;;;38.63;;
33690;SDS011;20026;50.058;18.428;2023-02-28T04:54:55;89.95;;;40.42;;
33690;SDS011;20026;50.058;18.428;2023-02-28T04:57:21;79.47;;;36.13;;
33690;SDS011;20026;50.058;18.428;2023-02-28T04:59:47;92.30;;;32.13;;
33690;SDS011;20026;50.058;18.428;2023-02-28T05:02:13;101.97;;;35.20;;
33690;SDS011;20026;50.058;18.428;2023-02-28T05:04:39;109.50;;;34.78;;
33690;SDS011;20026;50.058;18.428;2023-02-28T05:07:05;109.93;;;36.60;;
33690;SDS011;20026;50.058;18.428;2023-02-28T05:09:31;117.05;;;36.25;;
33690;SDS011;20026;50.058;18.428;2023-02-28T05:11:58;113.05;;;37.20;;
33690;SDS011;20026;50.058;18.428;2023-02-28T05:14:24;112.13;;;34.85;;
33690;SDS011;20026;50.058;18.428;2023-02-28T05:16:50;114.25;;;37.22;;
33690;SDS011;20026;50.058;18.428;2023-02-28T05:19:16;112.53;;;36.70;;
33690;SDS011;20026;50.058;18.428;2023-02-28T05:21:52;79.75;;;29.85;;
33690;SDS011;20026;50.058;18.428;2023-02-28T05:24:18;80.55;;;31.35;;
33690;SDS011;20026;50.058;18.428;2023-02-28T05:26:47;90.60;;;32.10;;
33690;SDS011;20026;50.058;18.428;2023-02-28T05:29:14;86.30;;;31.10;;
33690;SDS011;20026;50.058;18.428;2023-02-28T05:31:40;84.30;;;30.95;;
33690;SDS011;20026;50.058;18.428;2023-02-28T05:34:06;71.18;;;27.55;;
33690;SDS011;20026;50.058;18.428;2023-02-28T05:36:32;66.20;;;25.08;;
33690;SDS011;20026;50.058;18.428;2023-02-28T05:38:58;79.80;;;30.90;;
33690;SDS011;20026;50.058;18.428;2023-02-28T05:41:24;74.55;;;28.58;;
33690;SDS011;20026;50.058;18.428;2023-02-28T05:43:51;77.30;;;29.92;;
33690;SDS011;20026;50.058;18.428;2023-02-28T05:46:17;76.45;;;30.58;;
33690;SDS011;20026;50.058;18.428;2023-02-28T05:48:45;66.53;;;26.85;;
33690;SDS011;20026;50.058;18.428;2023-02-28T05:51:11;64.33;;;26.47;;
33690;SDS011;20026;50.058;18.428;2023-02-28T05:53:37;64.70;;;27.30;;
33690;SDS011;20026;50.058;18.428;2023-02-28T05:56:03;75.72;;;29.77;;
33690;SDS011;20026;50.058;18.428;2023-02-28T05:58:29;64.07;;;26.70;;
33690;SDS011;20026;50.058;18.428;2023-02-28T06:00:59;72.65;;;30.80;;
33690;SDS011;20026;50.058;18.428;2023-02-28T06:03:25;79.10;;;31.85;;
33690;SDS011;20026;50.058;18.428;2023-02-28T06:05:52;65.72;;;30.10;;
33690;SDS011;20026;50.058;18.428;2023-02-28T06:08:18;63.10;;;28.40;;
33690;SDS011;20026;50.058;18.428;2023-02-28T06:10:44;71.70;;;31.65;;
33690;SDS011;20026;50.058;18.428;2023-02-28T06:13:10;67.47;;;29.23;;
33690;SDS011;20026;50.058;18.428;2023-02-28T06:15:37;75.10;;;29.88;;
33690;SDS011;20026;50.058;18.428;2023-02-28T06:18:03;62.70;;;28.90;;
33690;SDS011;20026;50.058;18.428;2023-02-28T06:20:30;64.60;;;28.95;;
33690;SDS011;20026;50.058;18.428;2023-02-28T06:22:56;73.55;;;31.52;;
33690;SDS011;20026;50.058;18.428;2023-02-28T06:25:23;57.60;;;26.73;;
33690;SDS011;20026;50.058;18.428;2023-02-28T06:27:49;68.43;;;28.55;;
33690;SDS011;20026;50.058;18.428;2023-02-28T06:30:16;70.30;;;30.85;;
33690;SDS011;20026;50.058;18.428;2023-02-28T06:32:42;78.85;;;33.13;;
33690;SDS011;20026;50.058;18.428;2023-02-28T06:35:08;67.13;;;29.90;;
33690;SDS011;20026;50.058;18.428;2023-02-28T06:37:35;60.13;;;26.08;;
33690;SDS011;20026;50.058;18.428;2023-02-28T06:40:01;62.60;;;26.15;;
33690;SDS011;20026;50.058;18.428;2023-02-28T06:42:27;64.53;;;26.55;;
33690;SDS011;20026;50.058;18.428;2023-02-28T06:44:55;58.83;;;26.48;;
33690;SDS011;20026;50.058;18.428;2023-02-28T06:47:22;62.92;;;26.73;;
33690;SDS011;20026;50.058;18.428;2023-02-28T06:49:48;68.70;;;29.08;;
33690;SDS011;20026;50.058;18.428;2023-02-28T06:52:14;73.30;;;32.65;;
33690;SDS011;20026;50.058;18.428;2023-02-28T06:54:40;75.25;;;34.15;;
33690;SDS011;20026;50.058;18.428;2023-02-28T06:57:07;62.25;;;27.25;;
33690;SDS011;20026;50.058;18.428;2023-02-28T06:59:33;69.05;;;29.70;;
33690;SDS011;20026;50.058;18.428;2023-02-28T07:02:00;66.40;;;29.05;;
33690;SDS011;20026;50.058;18.428;2023-02-28T07:04:27;66.13;;;31.92;;
33690;SDS011;20026;50.058;18.428;2023-02-28T07:06:53;84.57;;;33.80;;
33690;SDS011;20026;50.058;18.428;2023-02-28T07:09:21;67.43;;;31.00;;
33690;SDS011;20026;50.058;18.428;2023-02-28T07:11:47;57.67;;;27.52;;
33690;SDS011;20026;50.058;18.428;2023-02-28T07:14:13;59.17;;;27.33;;
33690;SDS011;20026;50.058;18.428;2023-02-28T07:16:39;59.63;;;26.85;;
33690;SDS011;20026;50.058;18.428;2023-02-28T07:19:05;59.40;;;29.02;;
33690;SDS011;20026;50.058;18.428;2023-02-28T07:21:31;70.75;;;29.17;;
33690;SDS011;20026;50.058;18.428;2023-02-28T07:23:57;59.67;;;27.08;;
33690;SDS011;20026;50.058;18.428;2023-02-28T07:26:23;54.40;;;26.88;;
33690;SDS011;20026;50.058;18.428;2023-02-28T07:28:49;57.10;;;27.38;;
33690;SDS011;20026;50.058;18.428;2023-02-28T07:31:16;53.75;;;25.45;;
33690;SDS011;20026;50.058;18.428;2023-02-28T07:33:43;48.55;;;25.15;;
33690;SDS011;20026;50.058;18.428;2023-02-28T07:36:09;60.15;;;27.17;;
33690;SDS011;20026;50.058;18.428;2023-02-28T07:38:40;61.28;;;27.88;;
33690;SDS011;20026;50.058;18.428;2023-02-28T07:41:06;64.13;;;29.85;;
33690;SDS011;20026;50.058;18.428;2023-02-28T07:43:33;59.13;;;29.60;;
33690;SDS011;20026;50.058;18.428;2023-02-28T07:46:05;57.20;;;28.77;;
33690;SDS011;20026;50.058;18.428;2023-02-28T07:48:32;59.63;;;30.70;;
33690;SDS011;20026;50.058;18.428;2023-02-28T07:50:58;64.93;;;30.80;;
33690;SDS011;20026;50.058;18.428;2023-02-28T07:53:25;71.00;;;33.85;;
33690;SDS011;20026;50.058;18.428;2023-02-28T07:55:54;70.22;;;36.83;;
33690;SDS011;20026;50.058;18.428;2023-02-28T07:58:20;86.10;;;40.28;;
33690;SDS011;20026;50.058;18.428;2023-02-28T08:00:46;83.80;;;37.75;;
33690;SDS011;20026;50.058;18.428;2023-02-28T08:03:12;96.57;;;40.10;;
33690;SDS011;20026;50.058;18.428;2023-02-28T08:05:39;84.90;;;33.08;;
33690;SDS011;20026;50.058;18.428;2023-02-28T08:08:05;83.53;;;31.52;;
33690;SDS011;20026;50.058;18.428;2023-02-28T08:10:31;70.20;;;28.60;;
33690;SDS011;20026;50.058;18.428;2023-02-28T08:12:57;54.88;;;23.48;;
33690;SDS011;20026;50.058;18.428;2023-02-28T08:15:23;61.13;;;24.27;;
33690;SDS011;20026;50.058;18.428;2023-02-28T08:17:49;53.83;;;23.75;;
33690;SDS011;20026;50.058;18.428;2023-02-28T08:20:15;45.00;;;22.20;;
33690;SDS011;20026;50.058;18.428;2023-02-28T08:22:41;43.47;;;22.23;;
33690;SDS011;20026;50.058;18.428;2023-02-28T08:25:07;53.38;;;22.92;;
33690;SDS011;20026;50.058;18.428;2023-02-28T08:27:33;46.83;;;22.77;;
33690;SDS011;20026;50.058;18.428;2023-02-28T08:29:59;47.92;;;22.73;;
33690;SDS011;20026;50.058;18.428;2023-02-28T08:32:25;47.50;;;22.05;;
33690;SDS011;20026;50.058;18.428;2023-02-28T08:34:51;50.53;;;23.40;;
33690;SDS011;20026;50.058;18.428;2023-02-28T08:37:17;48.72;;;23.88;;
33690;SDS011;20026;50.058;18.428;2023-02-28T08:39:44;49.40;;;22.27;;
33690;SDS011;20026;50.058;18.428;2023-02-28T08:42:10;47.22;;;20.92;;
33690;SDS011;20026;50.058;18.428;2023-02-28T08:44:36;45.20;;;20.83;;
33690;SDS011;20026;50.058;18.428;2023-02-28T08:47:02;45.80;;;20.67;;
33690;SDS011;20026;50.058;18.428;2023-02-28T08:49:28;43.95;;;21.48;;
33690;SDS011;20026;50.058;18.428;2023-02-28T08:51:54;48.63;;;22.80;;
33690;SDS011;20026;50.058;18.428;2023-02-28T08:54:22;45.53;;;21.70;;
33690;SDS011;20026;50.058;18.428;2023-02-28T08:56:48;43.97;;;22.48;;
33690;SDS011;20026;50.058;18.428;2023-02-28T08:59:14;42.22;;;19.88;;
33690;SDS011;20026;50.058;18.428;2023-02-28T09:01:40;38.25;;;18.92;;
33690;SDS011;20026;50.058;18.428;2023-02-28T09:04:06;54.15;;;21.17;;
33690;SDS011;20026;50.058;18.428;2023-02-28T09:06:34;38.70;;;18.90;;
33690;SDS011;20026;50.058;18.428;2023-02-28T09:09:00;37.13;;;16.50;;
33690;SDS011;20026;50.058;18.428;2023-02-28T09:11:28;35.53;;;15.43;;
33690;SDS011;20026;50.058;18.428;2023-02-28T09:13:54;33.97;;;15.68;;
33690;SDS011;20026;50.058;18.428;2023-02-28T09:16:20;31.75;;;13.82;;
33690;SDS011;20026;50.058;18.428;2023-02-28T09:18:46;28.88;;;13.73;;
33690;SDS011;20026;50.058;18.428;2023-02-28T09:21:14;79.68;;;25.13;;
33690;SDS011;20026;50.058;18.428;2023-02-28T09:23:42;26.15;;;13.75;;
33690;SDS011;20026;50.058;18.428;2023-02-28T09:26:11;25.88;;;12.63;;
33690;SDS011;20026;50.058;18.428;2023-02-28T09:28:38;27.35;;;13.80;;
33690;SDS011;20026;50.058;18.428;2023-02-28T09:31:04;24.20;;;12.52;;
33690;SDS011;20026;50.058;18.428;2023-02-28T09:33:30;27.65;;;12.38;;
33690;SDS011;20026;50.058;18.428;2023-02-28T09:36:00;25.15;;;11.82;;
33690;SDS011;20026;50.058;18.428;2023-02-28T09:38:26;22.38;;;10.82;;
33690;SDS011;20026;50.058;18.428;2023-02-28T09:40:53;21.98;;;10.27;;
33690;SDS011;20026;50.058;18.428;2023-02-28T09:43:21;18.73;;;9.45;;
33690;SDS011;20026;50.058;18.428;2023-02-28T09:45:49;11.50;;;7.47;;
33690;SDS011;20026;50.058;18.428;2023-02-28T09:48:18;13.93;;;7.40;;
33690;SDS011;20026;50.058;18.428;2023-02-28T09:50:46;22.92;;;9.32;;
33690;SDS011;20026;50.058;18.428;2023-02-28T09:53:26;14.30;;;8.02;;
33690;SDS011;20026;50.058;18.428;2023-02-28T09:55:58;21.05;;;10.18;;
33690;SDS011;20026;50.058;18.428;2023-02-28T09:58:33;12.68;;;7.22;;
33690;SDS011;20026;50.058;18.428;2023-02-28T10:01:04;50.67;;;15.25;;
33690;SDS011;20026;50.058;18.428;2023-02-28T10:03:34;18.27;;;7.50;;
33690;SDS011;20026;50.058;18.428;2023-02-28T10:08:43;12.60;;;7.00;;
33690;SDS011;20026;50.058;18.428;2023-02-28T10:11:12;13.25;;;6.80;;
33690;SDS011;20026;50.058;18.428;2023-02-28T10:13:45;21.27;;;10.52;;
33690;SDS011;20026;50.058;18.428;2023-02-28T10:16:16;21.75;;;10.85;;
33690;SDS011;20026;50.058;18.428;2023-02-28T10:18:46;14.20;;;7.22;;
33690;SDS011;20026;50.058;18.428;2023-02-28T10:21:15;28.92;;;10.82;;
33690;SDS011;20026;50.058;18.428;2023-02-28T10:23:43;24.35;;;9.45;;
33690;SDS011;20026;50.058;18.428;2023-02-28T10:26:13;13.95;;;7.72;;
33690;SDS011;20026;50.058;18.428;2023-02-28T10:28:41;14.65;;;7.88;;
33690;SDS011;20026;50.058;18.428;2023-02-28T10:31:08;11.35;;;6.93;;
33690;SDS011;20026;50.058;18.428;2023-02-28T10:33:36;27.15;;;11.38;;
33690;SDS011;20026;50.058;18.428;2023-02-28T10:36:03;13.68;;;7.75;;
33690;SDS011;20026;50.058;18.428;2023-02-28T10:41:05;12.50;;;8.13;;
33690;SDS011;20026;50.058;18.428;2023-02-28T10:43:31;16.92;;;8.50;;
33690;SDS011;20026;50.058;18.428;2023-02-28T10:48:39;20.52;;;7.95;;
33690;SDS011;20026;50.058;18.428;2023-02-28T10:51:18;18.52;;;8.23;;
33690;SDS011;20026;50.058;18.428;2023-02-28T10:53:51;13.95;;;7.68;;
33690;SDS011;20026;50.058;18.428;2023-02-28T10:59:03;13.05;;;7.50;;
33690;SDS011;20026;50.058;18.428;2023-02-28T11:03:55;14.23;;;8.57;;
33690;SDS011;20026;50.058;18.428;2023-02-28T11:06:25;13.95;;;6.85;;
33690;SDS011;20026;50.058;18.428;2023-02-28T11:08:53;21.00;;;11.63;;
33690;SDS011;20026;50.058;18.428;2023-02-28T11:11:20;24.33;;;10.27;;
33690;SDS011;20026;50.058;18.428;2023-02-28T11:13:46;25.42;;;10.85;;
33690;SDS011;20026;50.058;18.428;2023-02-28T11:16:13;15.90;;;9.90;;
33690;SDS011;20026;50.058;18.428;2023-02-28T11:18:48;18.98;;;7.90;;
33690;SDS011;20026;50.058;18.428;2023-02-28T11:21:15;21.02;;;8.95;;
33690;SDS011;20026;50.058;18.428;2023-02-28T11:23:42;17.77;;;8.73;;
33690;SDS011;20026;50.058;18.428;2023-02-28T11:26:08;25.02;;;12.65;;
33690;SDS011;20026;50.058;18.428;2023-02-28T11:28:37;21.85;;;9.88;;
33690;SDS011;20026;50.058;18.428;2023-02-28T11:36:26;33.90;;;16.42;;
33690;SDS011;20026;50.058;18.428;2023-02-28T11:38:54;20.33;;;10.50;;
33690;SDS011;20026;50.058;18.428;2023-02-28T11:44:13;20.83;;;11.07;;
33690;SDS011;20026;50.058;18.428;2023-02-28T11:46:51;18.88;;;8.82;;
33690;SDS011;20026;50.058;18.428;2023-02-28T11:51:53;22.98;;;11.00;;
33690;SDS011;20026;50.058;18.428;2023-02-28T11:54:24;45.47;;;16.75;;
33690;SDS011;20026;50.058;18.428;2023-02-28T11:57:13;21.50;;;9.98;;
33690;SDS011;20026;50.058;18.428;2023-02-28T12:02:35;22.58;;;11.05;;
33690;SDS011;20026;50.058;18.428;2023-02-28T12:07:47;19.35;;;9.50;;
33690;SDS011;20026;50.058;18.428;2023-02-28T12:10:25;27.52;;;12.30;;
33690;SDS011;20026;50.058;18.428;2023-02-28T12:13:01;20.17;;;9.63;;
33690;SDS011;20026;50.058;18.428;2023-02-28T12:15:46;25.23;;;13.18;;
33690;SDS011;20026;50.058;18.428;2023-02-28T12:18:22;20.45;;;10.75;;
33690;SDS011;20026;50.058;18.428;2023-02-28T12:23:36;19.90;;;10.13;;
33690;SDS011;20026;50.058;18.428;2023-02-28T12:28:35;23.33;;;12.40;;
33690;SDS011;20026;50.058;18.428;2023-02-28T12:31:08;21.47;;;10.40;;
33690;SDS011;20026;50.058;18.428;2023-02-28T12:33:36;25.63;;;10.35;;
33690;SDS011;20026;50.058;18.428;2023-02-28T12:36:11;32.38;;;11.50;;
33690;SDS011;20026;50.058;18.428;2023-02-28T12:41:04;32.35;;;9.90;;
33690;SDS011;20026;50.058;18.428;2023-02-28T12:43:33;48.35;;;13.30;;
33690;SDS011;20026;50.058;18.428;2023-02-28T12:46:09;14.40;;;8.75;;
33690;SDS011;20026;50.058;18.428;2023-02-28T12:48:43;15.10;;;8.27;;
33690;SDS011;20026;50.058;18.428;2023-02-28T12:51:11;19.50;;;9.63;;
33690;SDS011;20026;50.058;18.428;2023-02-28T12:59:10;15.23;;;8.70;;
33690;SDS011;20026;50.058;18.428;2023-02-28T13:04:17;16.95;;;9.30;;
33690;SDS011;20026;50.058;18.428;2023-02-28T13:09:14;18.30;;;9.18;;
33690;SDS011;20026;50.058;18.428;2023-02-28T13:14:23;17.45;;;9.85;;
33690;SDS011;20026;50.058;18.428;2023-02-28T13:16:55;24.48;;;11.65;;
33690;SDS011;20026;50.058;18.428;2023-02-28T13:19:22;17.98;;;9.25;;
33690;SDS011;20026;50.058;18.428;2023-02-28T13:21:49;27.50;;;12.68;;
33690;SDS011;20026;50.058;18.428;2023-02-28T13:29:39;18.92;;;9.65;;
33690;SDS011;20026;50.058;18.428;2023-02-28T13:34:37;37.63;;;16.67;;
33690;SDS011;20026;50.058;18.428;2023-02-28T13:39:48;21.85;;;11.82;;
33690;SDS011;20026;50.058;18.428;2023-02-28T13:55:27;35.80;;;15.77;;
33690;SDS011;20026;50.058;18.428;2023-02-28T14:06:09;43.63;;;19.40;;
33690;SDS011;20026;50.058;18.428;2023-02-28T14:11:32;34.20;;;17.77;;
33690;SDS011;20026;50.058;18.428;2023-02-28T14:13:59;31.92;;;14.63;;
33690;SDS011;20026;50.058;18.428;2023-02-28T14:16:26;24.85;;;13.98;;
33690;SDS011;20026;50.058;18.428;2023-02-28T14:18:58;32.70;;;17.02;;
33690;SDS011;20026;50.058;18.428;2023-02-28T14:21:29;33.88;;;16.95;;
33690;SDS011;20026;50.058;18.428;2023-02-28T14:35:16;36.33;;;20.47;;
33690;SDS011;20026;50.058;18.428;2023-02-28T14:37:39;51.50;;;25.80;;
33690;SDS011;20026;50.058;18.428;2023-02-28T14:40:16;34.17;;;18.08;;
33690;SDS011;20026;50.058;18.428;2023-02-28T14:42:47;31.23;;;17.88;;
33690;SDS011;20026;50.058;18.428;2023-02-28T14:45:19;28.35;;;15.70;;
33690;SDS011;20026;50.058;18.428;2023-02-28T14:47:46;35.58;;;18.45;;
33690;SDS011;20026;50.058;18.428;2023-02-28T14:50:20;48.28;;;21.30;;
33690;SDS011;20026;50.058;18.428;2023-02-28T14:52:46;56.60;;;23.48;;
33690;SDS011;20026;50.058;18.428;2023-02-28T14:55:13;53.15;;;21.30;;
33690;SDS011;20026;50.058;18.428;2023-02-28T14:57:41;39.10;;;19.00;;
33690;SDS011;20026;50.058;18.428;2023-02-28T15:02:35;46.42;;;21.10;;
33690;SDS011;20026;50.058;18.428;2023-02-28T15:05:15;45.83;;;22.40;;
33690;SDS011;20026;50.058;18.428;2023-02-28T15:07:45;54.85;;;24.95;;
33690;SDS011;20026;50.058;18.428;2023-02-28T15:10:15;43.30;;;20.88;;
33690;SDS011;20026;50.058;18.428;2023-02-28T15:12:44;37.50;;;20.90;;
33690;SDS011;20026;50.058;18.428;2023-02-28T15:15:15;41.88;;;20.98;;
33690;SDS011;20026;50.058;18.428;2023-02-28T15:17:42;29.52;;;15.57;;
33690;SDS011;20026;50.058;18.428;2023-02-28T15:20:11;54.65;;;27.38;;
33690;SDS011;20026;50.058;18.428;2023-02-28T15:22:38;40.60;;;22.83;;
33690;SDS011;20026;50.058;18.428;2023-02-28T15:25:04;36.88;;;22.17;;
33690;SDS011;20026;50.058;18.428;2023-02-28T15:27:33;48.72;;;22.85;;
33690;SDS011;20026;50.058;18.428;2023-02-28T15:30:11;53.55;;;23.80;;
33690;SDS011;20026;50.058;18.428;2023-02-28T15:32:40;42.63;;;21.67;;
33690;SDS011;20026;50.058;18.428;2023-02-28T15:35:20;36.85;;;20.05;;
33690;SDS011;20026;50.058;18.428;2023-02-28T15:40:17;37.58;;;20.25;;
33690;SDS011;20026;50.058;18.428;2023-02-28T15:42:57;30.33;;;16.02;;
33690;SDS011;20026;50.058;18.428;2023-02-28T15:45:44;35.28;;;18.52;;
33690;SDS011;20026;50.058;18.428;2023-02-28T15:51:08;37.08;;;18.35;;
33690;SDS011;20026;50.058;18.428;2023-02-28T15:53:57;38.53;;;17.70;;
33690;SDS011;20026;50.058;18.428;2023-02-28T15:56:25;42.13;;;19.42;;
33690;SDS011;20026;50.058;18.428;2023-02-28T15:58:58;42.78;;;19.38;;
33690;SDS011;20026;50.058;18.428;2023-02-28T16:01:26;49.53;;;23.25;;
33690;SDS011;20026;50.058;18.428;2023-02-28T16:03:55;50.42;;;24.23;;
33690;SDS011;20026;50.058;18.428;2023-02-28T16:06:24;51.10;;;25.13;;
33690;SDS011;20026;50.058;18.428;2023-02-28T16:08:51;72.10;;;30.35;;
33690;SDS011;20026;50.058;18.428;2023-02-28T16:11:18;48.15;;;22.85;;
33690;SDS011;20026;50.058;18.428;2023-02-28T16:13:44;68.00;;;28.10;;
33690;SDS011;20026;50.058;18.428;2023-02-28T16:16:14;69.53;;;30.58;;
33690;SDS011;20026;50.058;18.428;2023-02-28T16:18:40;72.75;;;33.28;;
33690;SDS011;20026;50.058;18.428;2023-02-28T16:21:06;74.15;;;33.25;;
33690;SDS011;20026;50.058;18.428;2023-02-28T16:23:33;73.03;;;32.55;;
33690;SDS011;20026;50.058;18.428;2023-02-28T16:25:59;83.63;;;36.45;;
33690;SDS011;20026;50.058;18.428;2023-02-28T16:28:30;98.97;;;42.38;;
33690;SDS011;20026;50.058;18.428;2023-02-28T16:30:57;114.78;;;48.42;;
33690;SDS011;20026;50.058;18.428;2023-02-28T16:33:25;143.52;;;57.30;;
33690;SDS011;20026;50.058;18.428;2023-02-28T16:35:51;149.02;;;59.75;;
33690;SDS011;20026;50.058;18.428;2023-02-28T16:38:17;143.90;;;62.72;;
33690;SDS011;20026;50.058;18.428;2023-02-28T16:40:44;129.15;;;56.75;;
33690;SDS011;20026;50.058;18.428;2023-02-28T16:43:13;117.28;;;52.83;;